sensor_id;sensor_type;location;lat;lon;timestamp;P1;durP1;ratioP1;P2;durP2;ratioP2
25810;SDS011;13645;52.460;13.910;2023-06-19T00:02:01;11.15;;;9.27;;
25810;SDS011;13645;52.460;13.910;2023-06-19T00:04:28;10.52;;;9.05;;
25810;SDS011;13645;52.460;13.910;2023-06-19T00:06:55;10.52;;;9.43;;
25810;SDS011;13645;52.460;13.910;2023-06-19T00:09:22;10.10;;;9.07;;
25810;SDS011;13645;52.460;13.910;2023-06-19T00:11:49;10.52;;;9.18;;
25810;SDS011;13645;52.460;13.910;2023-06-19T00:14:15;11.88;;;9.05;;
25810;SDS011;13645;52.460;13.910;2023-06-19T00:16:43;10.82;;;9.73;;
25810;SDS011;13645;52.460;13.910;2023-06-19T00:19:11;11.05;;;9.80;;
25810;SDS011;13645;52.460;13.910;2023-06-19T00:21:38;12.43;;;9.20;;
25810;SDS011;13645;52.460;13.910;2023-06-19T00:24:05;11.70;;;9.45;;
25810;SDS011;13645;52.460;13.910;2023-06-19T00:26:32;10.85;;;9.75;;
25810;SDS011;13645;52.460;13.910;2023-06-19T00:28:59;11.50;;;8.95;;
25810;SDS011;13645;52.460;13.910;2023-06-19T00:31:25;11.20;;;8.77;;
25810;SDS011;13645;52.460;13.910;2023-06-19T00:33:53;11.63;;;9.35;;
25810;SDS011;13645;52.460;13.910;2023-06-19T00:36:20;10.23;;;9.00;;
25810;SDS011;13645;52.460;13.910;2023-06-19T00:38:47;11.05;;;9.68;;
25810;SDS011;13645;52.460;13.910;2023-06-19T00:41:17;10.10;;;9.10;;
25810;SDS011;13645;52.460;13.910;2023-06-19T00:43:44;10.35;;;8.88;;
25810;SDS011;13645;52.460;13.910;2023-06-19T00:46:11;10.68;;;9.52;;
25810;SDS011;13645;52.460;13.910;2023-06-19T00:48:38;11.35;;;9.38;;
25810;SDS011;13645;52.460;13.910;2023-06-19T00:51:06;10.23;;;9.23;;
25810;SDS011;13645;52.460;13.910;2023-06-19T00:53:33;17.15;;;9.02;;
25810;SDS011;13645;52.460;13.910;2023-06-19T00:56:01;9.63;;;8.63;;
25810;SDS011;13645;52.460;13.910;2023-06-19T00:58:29;10.27;;;9.27;;
25810;SDS011;13645;52.460;13.910;2023-06-19T01:00:57;9.85;;;8.85;;
25810;SDS011;13645;52.460;13.910;2023-06-19T01:03:34;10.25;;;9.35;;
25810;SDS011;13645;52.460;13.910;2023-06-19T01:06:03;14.40;;;10.05;;
25810;SDS011;13645;52.460;13.910;2023-06-19T01:11:09;13.02;;;9.48;;
25810;SDS011;13645;52.460;13.910;2023-06-19T01:13:55;11.32;;;9.77;;
25810;SDS011;13645;52.460;13.910;2023-06-19T01:16:26;12.13;;;10.02;;
25810;SDS011;13645;52.460;13.910;2023-06-19T01:18:54;11.55;;;9.40;;
25810;SDS011;13645;52.460;13.910;2023-06-19T01:21:21;10.82;;;9.82;;
25810;SDS011;13645;52.460;13.910;2023-06-19T01:23:48;10.63;;;9.48;;
25810;SDS011;13645;52.460;13.910;2023-06-19T01:26:16;11.43;;;9.32;;
25810;SDS011;13645;52.460;13.910;2023-06-19T01:28:43;13.43;;;9.88;;
25810;SDS011;13645;52.460;13.910;2023-06-19T01:31:13;10.27;;;9.27;;
25810;SDS011;13645;52.460;13.910;2023-06-19T01:33:46;10.48;;;9.32;;
25810;SDS011;13645;52.460;13.910;2023-06-19T01:36:15;11.95;;;9.52;;
25810;SDS011;13645;52.460;13.910;2023-06-19T01:38:45;10.55;;;9.45;;
25810;SDS011;13645;52.460;13.910;2023-06-19T01:41:15;11.18;;;10.00;;
25810;SDS011;13645;52.460;13.910;2023-06-19T01:43:43;14.60;;;9.32;;
25810;SDS011;13645;52.460;13.910;2023-06-19T01:46:12;10.88;;;9.13;;
25810;SDS011;13645;52.460;13.910;2023-06-19T01:48:39;11.05;;;9.88;;
25810;SDS011;13645;52.460;13.910;2023-06-19T01:51:06;12.48;;;9.07;;
25810;SDS011;13645;52.460;13.910;2023-06-19T01:53:33;9.98;;;8.98;;
25810;SDS011;13645;52.460;13.910;2023-06-19T01:56:03;10.95;;;9.80;;
25810;SDS011;13645;52.460;13.910;2023-06-19T01:58:30;12.45;;;9.23;;
25810;SDS011;13645;52.460;13.910;2023-06-19T02:00:57;13.45;;;9.27;;
25810;SDS011;13645;52.460;13.910;2023-06-19T02:03:24;10.52;;;9.45;;
25810;SDS011;13645;52.460;13.910;2023-06-19T02:05:51;11.02;;;9.65;;
25810;SDS011;13645;52.460;13.910;2023-06-19T02:08:18;11.10;;;9.88;;
25810;SDS011;13645;52.460;13.910;2023-06-19T02:10:45;10.85;;;9.77;;
25810;SDS011;13645;52.460;13.910;2023-06-19T02:13:12;11.60;;;10.40;;
25810;SDS011;13645;52.460;13.910;2023-06-19T02:15:39;11.82;;;10.73;;
25810;SDS011;13645;52.460;13.910;2023-06-19T02:18:06;12.65;;;10.98;;
25810;SDS011;13645;52.460;13.910;2023-06-19T02:20:32;11.13;;;9.88;;
25810;SDS011;13645;52.460;13.910;2023-06-19T02:23:00;12.32;;;11.05;;
25810;SDS011;13645;52.460;13.910;2023-06-19T02:25:27;12.10;;;10.77;;
25810;SDS011;13645;52.460;13.910;2023-06-19T02:27:54;11.82;;;10.68;;
25810;SDS011;13645;52.460;13.910;2023-06-19T02:30:20;14.43;;;10.75;;
25810;SDS011;13645;52.460;13.910;2023-06-19T02:32:48;16.30;;;11.20;;
25810;SDS011;13645;52.460;13.910;2023-06-19T02:35:14;11.20;;;10.07;;
25810;SDS011;13645;52.460;13.910;2023-06-19T02:37:41;11.68;;;10.45;;
25810;SDS011;13645;52.460;13.910;2023-06-19T02:40:08;14.50;;;10.43;;
25810;SDS011;13645;52.460;13.910;2023-06-19T02:42:36;11.05;;;10.05;;
25810;SDS011;13645;52.460;13.910;2023-06-19T02:45:03;15.02;;;10.05;;
25810;SDS011;13645;52.460;13.910;2023-06-19T02:47:30;11.73;;;10.52;;
25810;SDS011;13645;52.460;13.910;2023-06-19T02:50:01;14.32;;;10.95;;
25810;SDS011;13645;52.460;13.910;2023-06-19T02:52:29;12.85;;;10.90;;
25810;SDS011;13645;52.460;13.910;2023-06-19T02:54:56;12.93;;;11.38;;
25810;SDS011;13645;52.460;13.910;2023-06-19T02:57:23;16.35;;;10.48;;
25810;SDS011;13645;52.460;13.910;2023-06-19T02:59:50;12.13;;;10.55;;
25810;SDS011;13645;52.460;13.910;2023-06-19T03:02:16;13.18;;;9.35;;
25810;SDS011;13645;52.460;13.910;2023-06-19T03:04:43;13.50;;;10.23;;
25810;SDS011;13645;52.460;13.910;2023-06-19T03:07:11;12.38;;;10.80;;
25810;SDS011;13645;52.460;13.910;2023-06-19T03:09:40;13.07;;;10.52;;
25810;SDS011;13645;52.460;13.910;2023-06-19T03:12:07;12.23;;;10.15;;
25810;SDS011;13645;52.460;13.910;2023-06-19T03:14:35;12.57;;;11.05;;
25810;SDS011;13645;52.460;13.910;2023-06-19T03:17:02;14.43;;;11.40;;
25810;SDS011;13645;52.460;13.910;2023-06-19T03:19:29;11.93;;;10.82;;
25810;SDS011;13645;52.460;13.910;2023-06-19T03:21:56;14.52;;;10.05;;
25810;SDS011;13645;52.460;13.910;2023-06-19T03:24:23;11.52;;;10.43;;
25810;SDS011;13645;52.460;13.910;2023-06-19T03:26:52;10.63;;;9.48;;
25810;SDS011;13645;52.460;13.910;2023-06-19T03:29:19;11.35;;;10.05;;
25810;SDS011;13645;52.460;13.910;2023-06-19T03:31:45;17.08;;;11.80;;
25810;SDS011;13645;52.460;13.910;2023-06-19T03:34:12;14.98;;;11.52;;
25810;SDS011;13645;52.460;13.910;2023-06-19T03:36:39;13.07;;;11.57;;
25810;SDS011;13645;52.460;13.910;2023-06-19T03:39:06;12.77;;;11.52;;
25810;SDS011;13645;52.460;13.910;2023-06-19T03:41:33;13.18;;;11.32;;
25810;SDS011;13645;52.460;13.910;2023-06-19T03:43:59;13.43;;;11.00;;
25810;SDS011;13645;52.460;13.910;2023-06-19T03:46:26;19.80;;;12.77;;
25810;SDS011;13645;52.460;13.910;2023-06-19T03:48:53;23.08;;;13.23;;
25810;SDS011;13645;52.460;13.910;2023-06-19T03:51:20;16.52;;;12.65;;
25810;SDS011;13645;52.460;13.910;2023-06-19T03:53:47;15.23;;;12.10;;
25810;SDS011;13645;52.460;13.910;2023-06-19T03:56:13;16.75;;;14.38;;
25810;SDS011;13645;52.460;13.910;2023-06-19T03:58:40;14.02;;;12.63;;
25810;SDS011;13645;52.460;13.910;2023-06-19T04:01:07;14.70;;;13.20;;
25810;SDS011;13645;52.460;13.910;2023-06-19T04:03:34;13.60;;;12.30;;
25810;SDS011;13645;52.460;13.910;2023-06-19T04:06:00;15.07;;;13.57;;
25810;SDS011;13645;52.460;13.910;2023-06-19T04:08:27;15.85;;;13.85;;
25810;SDS011;13645;52.460;13.910;2023-06-19T04:10:54;15.27;;;13.77;;
25810;SDS011;13645;52.460;13.910;2023-06-19T04:13:21;14.23;;;12.82;;
25810;SDS011;13645;52.460;13.910;2023-06-19T04:15:48;13.63;;;11.75;;
25810;SDS011;13645;52.460;13.910;2023-06-19T04:18:16;12.65;;;11.43;;
25810;SDS011;13645;52.460;13.910;2023-06-19T04:20:43;15.00;;;12.32;;
25810;SDS011;13645;52.460;13.910;2023-06-19T04:23:11;13.38;;;11.93;;
25810;SDS011;13645;52.460;13.910;2023-06-19T04:25:39;14.57;;;13.07;;
25810;SDS011;13645;52.460;13.910;2023-06-19T04:28:05;15.07;;;13.57;;
25810;SDS011;13645;52.460;13.910;2023-06-19T04:30:32;14.63;;;13.23;;
25810;SDS011;13645;52.460;13.910;2023-06-19T04:32:59;15.32;;;13.90;;
25810;SDS011;13645;52.460;13.910;2023-06-19T04:35:26;16.65;;;14.90;;
25810;SDS011;13645;52.460;13.910;2023-06-19T04:37:53;15.15;;;13.65;;
25810;SDS011;13645;52.460;13.910;2023-06-19T04:40:20;19.35;;;15.18;;
25810;SDS011;13645;52.460;13.910;2023-06-19T04:42:47;15.70;;;14.10;;
25810;SDS011;13645;52.460;13.910;2023-06-19T04:45:14;15.95;;;14.35;;
25810;SDS011;13645;52.460;13.910;2023-06-19T04:47:40;17.77;;;14.23;;
25810;SDS011;13645;52.460;13.910;2023-06-19T04:50:19;15.50;;;13.52;;
25810;SDS011;13645;52.460;13.910;2023-06-19T04:52:49;16.85;;;14.70;;
25810;SDS011;13645;52.460;13.910;2023-06-19T04:55:18;16.38;;;13.70;;
25810;SDS011;13645;52.460;13.910;2023-06-19T04:57:45;18.95;;;14.13;;
25810;SDS011;13645;52.460;13.910;2023-06-19T05:00:11;14.93;;;13.32;;
25810;SDS011;13645;52.460;13.910;2023-06-19T05:02:40;15.65;;;12.90;;
25810;SDS011;13645;52.460;13.910;2023-06-19T05:05:10;16.80;;;12.05;;
25810;SDS011;13645;52.460;13.910;2023-06-19T05:07:37;15.98;;;12.43;;
25810;SDS011;13645;52.460;13.910;2023-06-19T05:10:04;12.45;;;11.32;;
25810;SDS011;13645;52.460;13.910;2023-06-19T05:12:31;14.68;;;12.63;;
25810;SDS011;13645;52.460;13.910;2023-06-19T05:14:58;14.40;;;12.90;;
25810;SDS011;13645;52.460;13.910;2023-06-19T05:17:25;16.85;;;13.15;;
25810;SDS011;13645;52.460;13.910;2023-06-19T05:19:52;15.07;;;13.48;;
25810;SDS011;13645;52.460;13.910;2023-06-19T05:22:18;14.55;;;13.23;;
25810;SDS011;13645;52.460;13.910;2023-06-19T05:24:47;15.30;;;13.52;;
25810;SDS011;13645;52.460;13.910;2023-06-19T05:27:14;16.08;;;14.32;;
25810;SDS011;13645;52.460;13.910;2023-06-19T05:29:41;14.48;;;13.07;;
25810;SDS011;13645;52.460;13.910;2023-06-19T05:32:08;15.63;;;14.02;;
25810;SDS011;13645;52.460;13.910;2023-06-19T05:34:34;15.23;;;13.23;;
25810;SDS011;13645;52.460;13.910;2023-06-19T05:37:01;15.55;;;14.10;;
25810;SDS011;13645;52.460;13.910;2023-06-19T05:39:29;14.73;;;12.85;;
25810;SDS011;13645;52.460;13.910;2023-06-19T05:41:56;15.02;;;13.55;;
25810;SDS011;13645;52.460;13.910;2023-06-19T05:44:23;17.58;;;12.57;;
25810;SDS011;13645;52.460;13.910;2023-06-19T05:46:50;15.90;;;12.75;;
25810;SDS011;13645;52.460;13.910;2023-06-19T05:49:17;14.15;;;12.63;;
25810;SDS011;13645;52.460;13.910;2023-06-19T05:51:44;13.88;;;12.50;;
25810;SDS011;13645;52.460;13.910;2023-06-19T05:54:11;14.43;;;12.98;;
25810;SDS011;13645;52.460;13.910;2023-06-19T05:56:38;14.70;;;13.20;;
25810;SDS011;13645;52.460;13.910;2023-06-19T05:59:05;13.60;;;12.20;;
25810;SDS011;13645;52.460;13.910;2023-06-19T06:01:32;14.43;;;13.05;;
25810;SDS011;13645;52.460;13.910;2023-06-19T06:03:59;15.85;;;12.30;;
25810;SDS011;13645;52.460;13.910;2023-06-19T06:06:28;14.25;;;12.20;;
25810;SDS011;13645;52.460;13.910;2023-06-19T06:08:55;14.80;;;13.30;;
25810;SDS011;13645;52.460;13.910;2023-06-19T06:11:21;15.07;;;13.68;;
25810;SDS011;13645;52.460;13.910;2023-06-19T06:13:49;17.98;;;13.32;;
25810;SDS011;13645;52.460;13.910;2023-06-19T06:16:15;14.43;;;13.02;;
25810;SDS011;13645;52.460;13.910;2023-06-19T06:18:42;14.95;;;13.45;;
25810;SDS011;13645;52.460;13.910;2023-06-19T06:21:10;14.00;;;12.48;;
25810;SDS011;13645;52.460;13.910;2023-06-19T06:23:40;14.63;;;12.95;;
25810;SDS011;13645;52.460;13.910;2023-06-19T06:26:07;14.95;;;12.98;;
25810;SDS011;13645;52.460;13.910;2023-06-19T06:28:34;16.73;;;13.60;;
25810;SDS011;13645;52.460;13.910;2023-06-19T06:31:01;14.55;;;13.07;;
25810;SDS011;13645;52.460;13.910;2023-06-19T06:33:28;15.35;;;13.50;;
25810;SDS011;13645;52.460;13.910;2023-06-19T06:35:57;14.57;;;13.05;;
25810;SDS011;13645;52.460;13.910;2023-06-19T06:38:25;14.05;;;12.60;;
25810;SDS011;13645;52.460;13.910;2023-06-19T06:40:51;15.23;;;12.48;;
25810;SDS011;13645;52.460;13.910;2023-06-19T06:43:18;15.30;;;13.40;;
25810;SDS011;13645;52.460;13.910;2023-06-19T06:45:45;16.35;;;13.50;;
25810;SDS011;13645;52.460;13.910;2023-06-19T06:48:12;15.82;;;13.50;;
25810;SDS011;13645;52.460;13.910;2023-06-19T06:50:39;15.15;;;12.77;;
25810;SDS011;13645;52.460;13.910;2023-06-19T06:53:07;15.60;;;14.00;;
25810;SDS011;13645;52.460;13.910;2023-06-19T06:55:34;15.35;;;13.52;;
25810;SDS011;13645;52.460;13.910;2023-06-19T06:58:01;14.30;;;12.88;;
25810;SDS011;13645;52.460;13.910;2023-06-19T07:00:28;14.35;;;12.95;;
25810;SDS011;13645;52.460;13.910;2023-06-19T07:02:55;19.90;;;14.15;;
25810;SDS011;13645;52.460;13.910;2023-06-19T07:05:22;16.05;;;13.10;;
25810;SDS011;13645;52.460;13.910;2023-06-19T07:07:49;16.55;;;12.75;;
25810;SDS011;13645;52.460;13.910;2023-06-19T07:10:16;14.90;;;13.35;;
25810;SDS011;13645;52.460;13.910;2023-06-19T07:12:46;14.48;;;12.93;;
25810;SDS011;13645;52.460;13.910;2023-06-19T07:15:14;14.00;;;12.60;;
25810;SDS011;13645;52.460;13.910;2023-06-19T07:17:41;14.15;;;12.75;;
25810;SDS011;13645;52.460;13.910;2023-06-19T07:20:09;14.68;;;13.20;;
25810;SDS011;13645;52.460;13.910;2023-06-19T07:22:37;13.27;;;12.07;;
25810;SDS011;13645;52.460;13.910;2023-06-19T07:25:04;15.13;;;12.40;;
25810;SDS011;13645;52.460;13.910;2023-06-19T07:27:31;14.48;;;12.98;;
25810;SDS011;13645;52.460;13.910;2023-06-19T07:29:58;15.02;;;12.75;;
25810;SDS011;13645;52.460;13.910;2023-06-19T07:32:25;15.27;;;13.30;;
25810;SDS011;13645;52.460;13.910;2023-06-19T07:34:52;14.93;;;13.32;;
25810;SDS011;13645;52.460;13.910;2023-06-19T07:37:19;14.40;;;12.90;;
25810;SDS011;13645;52.460;13.910;2023-06-19T07:39:47;15.25;;;13.80;;
25810;SDS011;13645;52.460;13.910;2023-06-19T07:42:16;20.08;;;13.85;;
25810;SDS011;13645;52.460;13.910;2023-06-19T07:44:44;15.82;;;14.13;;
25810;SDS011;13645;52.460;13.910;2023-06-19T07:47:12;16.90;;;14.00;;
25810;SDS011;13645;52.460;13.910;2023-06-19T07:49:40;15.95;;;14.35;;
25810;SDS011;13645;52.460;13.910;2023-06-19T07:52:07;16.08;;;14.52;;
25810;SDS011;13645;52.460;13.910;2023-06-19T07:54:47;16.95;;;14.73;;
25810;SDS011;13645;52.460;13.910;2023-06-19T07:57:18;17.88;;;15.30;;
25810;SDS011;13645;52.460;13.910;2023-06-19T07:59:45;16.50;;;14.70;;
25810;SDS011;13645;52.460;13.910;2023-06-19T08:02:12;18.70;;;14.55;;
25810;SDS011;13645;52.460;13.910;2023-06-19T08:04:39;16.27;;;14.15;;
25810;SDS011;13645;52.460;13.910;2023-06-19T08:07:06;14.75;;;13.27;;
25810;SDS011;13645;52.460;13.910;2023-06-19T08:09:33;14.65;;;13.20;;
25810;SDS011;13645;52.460;13.910;2023-06-19T08:12:00;14.98;;;13.45;;
25810;SDS011;13645;52.460;13.910;2023-06-19T08:14:28;15.77;;;13.52;;
25810;SDS011;13645;52.460;13.910;2023-06-19T08:16:55;17.52;;;13.35;;
25810;SDS011;13645;52.460;13.910;2023-06-19T08:19:21;14.68;;;12.50;;
25810;SDS011;13645;52.460;13.910;2023-06-19T08:21:48;14.05;;;12.68;;
25810;SDS011;13645;52.460;13.910;2023-06-19T08:24:15;15.43;;;11.05;;
25810;SDS011;13645;52.460;13.910;2023-06-19T08:26:42;16.25;;;11.40;;
25810;SDS011;13645;52.460;13.910;2023-06-19T08:29:09;12.98;;;11.57;;
25810;SDS011;13645;52.460;13.910;2023-06-19T08:31:36;13.00;;;11.70;;
25810;SDS011;13645;52.460;13.910;2023-06-19T08:34:03;15.27;;;10.98;;
25810;SDS011;13645;52.460;13.910;2023-06-19T08:36:34;14.88;;;10.95;;
25810;SDS011;13645;52.460;13.910;2023-06-19T08:39:01;16.48;;;11.23;;
25810;SDS011;13645;52.460;13.910;2023-06-19T08:41:29;11.68;;;10.48;;
25810;SDS011;13645;52.460;13.910;2023-06-19T08:43:55;13.40;;;9.88;;
25810;SDS011;13645;52.460;13.910;2023-06-19T08:46:22;15.43;;;10.88;;
25810;SDS011;13645;52.460;13.910;2023-06-19T08:48:49;11.68;;;10.35;;
25810;SDS011;13645;52.460;13.910;2023-06-19T08:51:16;15.60;;;10.63;;
25810;SDS011;13645;52.460;13.910;2023-06-19T08:53:44;11.52;;;10.32;;
25810;SDS011;13645;52.460;13.910;2023-06-19T08:56:18;11.70;;;9.52;;
25810;SDS011;13645;52.460;13.910;2023-06-19T08:58:45;10.85;;;9.73;;
25810;SDS011;13645;52.460;13.910;2023-06-19T09:01:13;13.27;;;10.05;;
25810;SDS011;13645;52.460;13.910;2023-06-19T09:03:43;10.77;;;9.68;;
25810;SDS011;13645;52.460;13.910;2023-06-19T09:06:15;13.68;;;9.80;;
25810;SDS011;13645;52.460;13.910;2023-06-19T09:08:42;11.48;;;9.98;;
25810;SDS011;13645;52.460;13.910;2023-06-19T09:11:10;10.82;;;9.70;;
25810;SDS011;13645;52.460;13.910;2023-06-19T09:13:37;13.48;;;10.13;;
25810;SDS011;13645;52.460;13.910;2023-06-19T09:16:04;11.75;;;9.90;;
25810;SDS011;13645;52.460;13.910;2023-06-19T09:18:45;12.65;;;10.10;;
25810;SDS011;13645;52.460;13.910;2023-06-19T09:21:17;13.65;;;9.98;;
25810;SDS011;13645;52.460;13.910;2023-06-19T09:23:45;10.70;;;9.57;;
25810;SDS011;13645;52.460;13.910;2023-06-19T09:26:16;12.48;;;9.23;;
25810;SDS011;13645;52.460;13.910;2023-06-19T09:28:44;13.32;;;9.98;;
25810;SDS011;13645;52.460;13.910;2023-06-19T09:31:11;11.50;;;9.18;;
25810;SDS011;13645;52.460;13.910;2023-06-19T09:33:39;10.20;;;8.88;;
25810;SDS011;13645;52.460;13.910;2023-06-19T09:36:06;10.38;;;8.60;;
25810;SDS011;13645;52.460;13.910;2023-06-19T09:38:34;10.10;;;8.85;;
25810;SDS011;13645;52.460;13.910;2023-06-19T09:41:04;9.60;;;8.68;;
25810;SDS011;13645;52.460;13.910;2023-06-19T09:43:38;11.65;;;8.98;;
25810;SDS011;13645;52.460;13.910;2023-06-19T09:46:08;10.52;;;9.27;;
25810;SDS011;13645;52.460;13.910;2023-06-19T09:48:41;9.98;;;8.98;;
25810;SDS011;13645;52.460;13.910;2023-06-19T09:51:18;9.90;;;8.88;;
25810;SDS011;13645;52.460;13.910;2023-06-19T09:53:48;10.55;;;9.45;;
25810;SDS011;13645;52.460;13.910;2023-06-19T09:56:16;9.65;;;8.45;;
25810;SDS011;13645;52.460;13.910;2023-06-19T09:58:49;9.07;;;8.18;;
25810;SDS011;13645;52.460;13.910;2023-06-19T10:01:17;9.43;;;8.52;;
25810;SDS011;13645;52.460;13.910;2023-06-19T10:03:45;9.00;;;8.10;;
25810;SDS011;13645;52.460;13.910;2023-06-19T10:06:13;12.57;;;9.25;;
25810;SDS011;13645;52.460;13.910;2023-06-19T10:08:45;12.68;;;9.00;;
25810;SDS011;13645;52.460;13.910;2023-06-19T10:11:13;9.68;;;8.68;;
25810;SDS011;13645;52.460;13.910;2023-06-19T10:13:40;9.85;;;8.85;;
25810;SDS011;13645;52.460;13.910;2023-06-19T10:16:18;12.93;;;9.40;;
25810;SDS011;13645;52.460;13.910;2023-06-19T10:18:49;9.93;;;8.93;;
25810;SDS011;13645;52.460;13.910;2023-06-19T10:21:17;10.15;;;8.32;;
25810;SDS011;13645;52.460;13.910;2023-06-19T10:23:57;9.60;;;8.60;;
25810;SDS011;13645;52.460;13.910;2023-06-19T10:27:09;9.73;;;8.65;;
25810;SDS011;13645;52.460;13.910;2023-06-19T10:29:39;9.80;;;8.45;;
25810;SDS011;13645;52.460;13.910;2023-06-19T10:32:13;9.77;;;8.75;;
25810;SDS011;13645;52.460;13.910;2023-06-19T10:34:44;10.70;;;9.50;;
25810;SDS011;13645;52.460;13.910;2023-06-19T10:37:13;13.18;;;9.18;;
25810;SDS011;13645;52.460;13.910;2023-06-19T10:39:40;12.25;;;8.30;;
25810;SDS011;13645;52.460;13.910;2023-06-19T10:42:07;11.00;;;9.00;;
25810;SDS011;13645;52.460;13.910;2023-06-19T10:44:34;10.18;;;9.13;;
25810;SDS011;13645;52.460;13.910;2023-06-19T10:47:04;12.10;;;9.55;;
25810;SDS011;13645;52.460;13.910;2023-06-19T10:49:33;11.07;;;8.68;;
25810;SDS011;13645;52.460;13.910;2023-06-19T10:52:00;10.52;;;9.43;;
25810;SDS011;13645;52.460;13.910;2023-06-19T10:54:28;13.07;;;8.98;;
25810;SDS011;13645;52.460;13.910;2023-06-19T10:56:55;9.75;;;8.85;;
25810;SDS011;13645;52.460;13.910;2023-06-19T10:59:23;11.27;;;9.07;;
25810;SDS011;13645;52.460;13.910;2023-06-19T11:01:51;12.55;;;9.10;;
25810;SDS011;13645;52.460;13.910;2023-06-19T11:04:19;9.88;;;8.88;;
25810;SDS011;13645;52.460;13.910;2023-06-19T11:06:45;11.25;;;8.70;;
25810;SDS011;13645;52.460;13.910;2023-06-19T11:09:14;9.60;;;8.48;;
25810;SDS011;13645;52.460;13.910;2023-06-19T11:11:47;9.82;;;8.57;;
25810;SDS011;13645;52.460;13.910;2023-06-19T11:16:42;9.98;;;9.05;;
25810;SDS011;13645;52.460;13.910;2023-06-19T11:19:19;10.32;;;8.85;;
25810;SDS011;13645;52.460;13.910;2023-06-19T11:21:48;11.27;;;8.77;;
25810;SDS011;13645;52.460;13.910;2023-06-19T11:24:16;11.40;;;8.98;;
25810;SDS011;13645;52.460;13.910;2023-06-19T11:26:44;10.07;;;8.85;;
25810;SDS011;13645;52.460;13.910;2023-06-19T11:29:17;13.03;;;8.93;;
25810;SDS011;13645;52.460;13.910;2023-06-19T11:31:45;11.00;;;9.38;;
25810;SDS011;13645;52.460;13.910;2023-06-19T11:34:14;10.65;;;9.00;;
25810;SDS011;13645;52.460;13.910;2023-06-19T11:36:41;10.77;;;9.68;;
25810;SDS011;13645;52.460;13.910;2023-06-19T11:39:09;10.45;;;9.35;;
25810;SDS011;13645;52.460;13.910;2023-06-19T11:41:39;10.48;;;9.43;;
25810;SDS011;13645;52.460;13.910;2023-06-19T11:44:07;11.40;;;9.30;;
25810;SDS011;13645;52.460;13.910;2023-06-19T11:46:37;11.00;;;9.90;;
25810;SDS011;13645;52.460;13.910;2023-06-19T11:49:14;12.32;;;9.68;;
25810;SDS011;13645;52.460;13.910;2023-06-19T11:51:45;11.00;;;9.82;;
25810;SDS011;13645;52.460;13.910;2023-06-19T11:54:13;12.32;;;9.32;;
25810;SDS011;13645;52.460;13.910;2023-06-19T11:56:44;12.55;;;9.13;;
25810;SDS011;13645;52.460;13.910;2023-06-19T11:59:11;12.63;;;9.80;;
25810;SDS011;13645;52.460;13.910;2023-06-19T12:01:37;16.65;;;9.32;;
25810;SDS011;13645;52.460;13.910;2023-06-19T12:04:05;10.05;;;9.02;;
25810;SDS011;13645;52.460;13.910;2023-06-19T12:06:33;12.02;;;8.90;;
25810;SDS011;13645;52.460;13.910;2023-06-19T12:09:02;10.52;;;8.50;;
25810;SDS011;13645;52.460;13.910;2023-06-19T12:11:31;9.77;;;8.60;;
25810;SDS011;13645;52.460;13.910;2023-06-19T12:13:57;14.20;;;8.20;;
25810;SDS011;13645;52.460;13.910;2023-06-19T12:16:24;10.52;;;8.05;;
25810;SDS011;13645;52.460;13.910;2023-06-19T12:18:52;13.38;;;8.27;;
25810;SDS011;13645;52.460;13.910;2023-06-19T12:21:19;12.52;;;7.85;;
25810;SDS011;13645;52.460;13.910;2023-06-19T12:24:01;10.95;;;8.00;;
25810;SDS011;13645;52.460;13.910;2023-06-19T12:26:28;8.80;;;7.90;;
25810;SDS011;13645;52.460;13.910;2023-06-19T12:28:55;8.73;;;7.82;;
25810;SDS011;13645;52.460;13.910;2023-06-19T12:31:22;10.98;;;8.70;;
25810;SDS011;13645;52.460;13.910;2023-06-19T12:33:48;11.57;;;8.23;;
25810;SDS011;13645;52.460;13.910;2023-06-19T12:36:15;11.15;;;8.20;;
25810;SDS011;13645;52.460;13.910;2023-06-19T12:38:42;8.50;;;7.70;;
25810;SDS011;13645;52.460;13.910;2023-06-19T12:41:09;10.50;;;7.60;;
25810;SDS011;13645;52.460;13.910;2023-06-19T12:43:37;8.30;;;7.60;;
25810;SDS011;13645;52.460;13.910;2023-06-19T12:46:05;9.68;;;8.30;;
25810;SDS011;13645;52.460;13.910;2023-06-19T12:48:32;12.85;;;9.85;;
25810;SDS011;13645;52.460;13.910;2023-06-19T12:50:59;14.82;;;9.88;;
25810;SDS011;13645;52.460;13.910;2023-06-19T12:53:25;9.77;;;8.05;;
25810;SDS011;13645;52.460;13.910;2023-06-19T12:55:56;12.73;;;7.43;;
25810;SDS011;13645;52.460;13.910;2023-06-19T12:58:28;8.23;;;7.35;;
25810;SDS011;13645;52.460;13.910;2023-06-19T13:00:55;8.88;;;7.40;;
25810;SDS011;13645;52.460;13.910;2023-06-19T13:03:21;7.72;;;6.93;;
25810;SDS011;13645;52.460;13.910;2023-06-19T13:05:48;9.35;;;6.50;;
25810;SDS011;13645;52.460;13.910;2023-06-19T13:08:16;9.85;;;6.70;;
25810;SDS011;13645;52.460;13.910;2023-06-19T13:10:43;8.32;;;6.97;;
25810;SDS011;13645;52.460;13.910;2023-06-19T13:13:09;10.32;;;7.55;;
25810;SDS011;13645;52.460;13.910;2023-06-19T13:15:37;10.60;;;7.50;;
25810;SDS011;13645;52.460;13.910;2023-06-19T13:18:04;9.23;;;6.88;;
25810;SDS011;13645;52.460;13.910;2023-06-19T13:20:31;11.38;;;6.40;;
25810;SDS011;13645;52.460;13.910;2023-06-19T13:22:58;7.38;;;5.97;;
25810;SDS011;13645;52.460;13.910;2023-06-19T13:25:25;7.57;;;6.10;;
25810;SDS011;13645;52.460;13.910;2023-06-19T13:27:52;7.05;;;6.00;;
25810;SDS011;13645;52.460;13.910;2023-06-19T13:30:19;8.40;;;6.78;;
25810;SDS011;13645;52.460;13.910;2023-06-19T13:32:45;6.75;;;6.05;;
25810;SDS011;13645;52.460;13.910;2023-06-19T13:35:12;11.13;;;6.60;;
25810;SDS011;13645;52.460;13.910;2023-06-19T13:37:39;8.23;;;6.03;;
25810;SDS011;13645;52.460;13.910;2023-06-19T13:40:06;7.00;;;6.25;;
25810;SDS011;13645;52.460;13.910;2023-06-19T13:42:34;7.53;;;6.55;;
25810;SDS011;13645;52.460;13.910;2023-06-19T13:45:05;8.45;;;6.50;;
25810;SDS011;13645;52.460;13.910;2023-06-19T13:47:32;9.93;;;6.30;;
25810;SDS011;13645;52.460;13.910;2023-06-19T13:49:59;8.98;;;6.55;;
25810;SDS011;13645;52.460;13.910;2023-06-19T13:52:26;7.90;;;6.05;;
25810;SDS011;13645;52.460;13.910;2023-06-19T13:54:54;7.22;;;6.47;;
25810;SDS011;13645;52.460;13.910;2023-06-19T13:57:21;6.68;;;5.97;;
25810;SDS011;13645;52.460;13.910;2023-06-19T13:59:48;8.80;;;6.57;;
25810;SDS011;13645;52.460;13.910;2023-06-19T14:02:15;8.32;;;6.30;;
25810;SDS011;13645;52.460;13.910;2023-06-19T14:04:43;8.02;;;6.55;;
25810;SDS011;13645;52.460;13.910;2023-06-19T14:07:09;8.27;;;6.38;;
25810;SDS011;13645;52.460;13.910;2023-06-19T14:09:36;8.38;;;7.30;;
25810;SDS011;13645;52.460;13.910;2023-06-19T14:12:04;12.38;;;11.07;;
25810;SDS011;13645;52.460;13.910;2023-06-19T14:14:31;7.85;;;6.80;;
25810;SDS011;13645;52.460;13.910;2023-06-19T14:16:58;10.30;;;6.63;;
25810;SDS011;13645;52.460;13.910;2023-06-19T14:19:25;10.57;;;7.03;;
25810;SDS011;13645;52.460;13.910;2023-06-19T14:21:52;11.25;;;7.30;;
25810;SDS011;13645;52.460;13.910;2023-06-19T14:24:19;9.00;;;6.97;;
25810;SDS011;13645;52.460;13.910;2023-06-19T14:26:45;7.60;;;6.88;;
25810;SDS011;13645;52.460;13.910;2023-06-19T14:29:12;9.27;;;7.13;;